createdAt,value
2018-10-21T00:03:17.372Z,75.30
2018-10-21T00:06:50.596Z,75.50
2018-10-21T00:10:23.830Z,75.60
2018-10-21T00:13:57.052Z,75.80
2018-10-21T00:17:35.957Z,75.90
2018-10-21T00:21:09.195Z,76.00
2018-10-21T00:24:42.396Z,77.20
2018-10-21T00:28:15.617Z,76.50
2018-10-21T00:31:54.319Z,76.70
2018-10-21T00:35:27.551Z,76.80
2018-10-21T00:39:00.832Z,76.90
2018-10-21T00:42:34.035Z,77.00
2018-10-21T00:46:07.350Z,77.30
2018-10-21T00:49:46.277Z,77.40
2018-10-21T00:53:19.487Z,77.40
2018-10-21T01:00:31.466Z,77.40
2018-10-21T01:04:04.754Z,77.40
2018-10-21T01:07:37.976Z,77.50
2018-10-21T01:11:11.217Z,77.40
2018-10-21T01:14:44.443Z,77.40
2018-10-21T01:18:17.651Z,77.20
2018-10-21T01:21:50.890Z,77.30
2018-10-21T01:25:24.107Z,77.30
2018-10-21T01:28:57.329Z,77.10
2018-10-21T01:32:30.567Z,76.80
2018-10-21T01:36:03.784Z,76.50
2018-10-21T01:40:45.864Z,76.40
2018-10-21T01:48:04.670Z,76.60
2018-10-21T01:51:37.884Z,76.60
2018-10-21T01:58:49.640Z,76.70
2018-10-21T02:02:22.863Z,76.60
2018-10-21T02:06:01.875Z,76.50
2018-10-21T02:09:35.079Z,76.00
2018-10-21T02:13:08.358Z,75.80
2018-10-21T02:16:41.609Z,75.70
2018-10-21T02:20:15.621Z,75.60
2018-10-21T02:23:48.857Z,75.50
2018-10-21T02:27:22.072Z,75.60
2018-10-21T02:30:55.296Z,75.50
2018-10-21T02:34:28.527Z,75.50
2018-10-21T02:38:07.285Z,75.40
2018-10-21T02:41:54.369Z,75.80
2018-10-21T02:45:27.597Z,75.70
2018-10-21T02:49:01.492Z,75.60
2018-10-21T02:52:34.715Z,75.70
2018-10-21T02:56:09.123Z,75.80
2018-10-21T02:59:42.335Z,76.00
2018-10-21T03:03:15.566Z,76.60
2018-10-21T03:06:49.069Z,75.80
2018-10-21T03:10:22.304Z,76.00
2018-10-21T03:13:55.511Z,76.40
2018-10-21T03:17:28.728Z,76.80
2018-10-21T03:21:02.754Z,77.10
2018-10-21T03:24:35.988Z,77.20
2018-10-21T03:28:09.197Z,77.20
2018-10-21T03:31:42.422Z,77.40
2018-10-21T03:35:15.643Z,77.30
2018-10-21T03:38:48.861Z,77.40
2018-10-21T03:42:22.079Z,77.60
2018-10-21T03:45:55.359Z,77.80
2018-10-21T03:49:28.553Z,77.90
2018-10-21T03:56:46.220Z,78.10
2018-10-21T04:00:19.448Z,78.40
2018-10-21T04:03:52.671Z,78.40
2018-10-21T04:07:25.887Z,78.40
2018-10-21T04:10:59.105Z,78.60
2018-10-21T04:14:32.343Z,79.00
2018-10-21T04:18:05.589Z,79.00
2018-10-21T04:21:38.833Z,79.20
2018-10-21T04:25:17.793Z,79.50
2018-10-21T04:28:50.999Z,79.90
2018-10-21T04:32:30.993Z,79.90
2018-10-21T04:36:04.205Z,80.40
2018-10-21T04:39:48.764Z,80.90
2018-10-21T04:43:27.432Z,81.20
2018-10-21T04:47:00.805Z,81.30
2018-10-21T04:50:33.901Z,81.80
2018-10-21T04:54:12.905Z,82.00
2018-10-21T04:57:47.243Z,82.30
2018-10-21T05:01:31.708Z,82.30
2018-10-21T05:05:05.603Z,82.30
2018-10-21T05:08:38.832Z,82.30
2018-10-21T05:12:12.056Z,82.50
2018-10-21T05:15:45.272Z,82.50
2018-10-21T05:19:24.008Z,82.60
2018-10-21T05:22:57.345Z,82.70
2018-10-21T05:26:30.568Z,82.70
2018-10-21T05:30:04.153Z,82.70
2018-10-21T05:37:16.419Z,82.80
2018-10-21T05:40:49.632Z,82.90
2018-10-21T05:44:28.573Z,83.00
2018-10-21T05:48:01.807Z,83.00
2018-10-21T05:51:35.073Z,83.20
2018-10-21T05:55:14.767Z,83.30
2018-10-21T05:58:58.947Z,83.40
2018-10-21T06:02:32.167Z,83.40
2018-10-21T06:06:05.405Z,83.50
2018-10-21T06:09:38.630Z,83.70
2018-10-21T06:13:12.327Z,83.70
2018-10-21T06:16:50.995Z,83.60
2018-10-21T06:20:25.175Z,83.70
2018-10-21T06:23:58.390Z,83.80
2018-10-21T06:27:31.646Z,83.60
2018-10-21T06:31:04.960Z,84.20
2018-10-21T06:34:43.988Z,83.30
2018-10-21T06:38:17.319Z,84.10
2018-10-21T06:41:50.535Z,83.20
2018-10-21T06:45:23.800Z,83.00
2018-10-21T06:48:57.010Z,83.10
2018-10-21T06:52:30.237Z,83.00
2018-10-21T06:56:03.460Z,83.10
2018-10-21T06:59:47.833Z,83.20
2018-10-21T07:03:26.703Z,83.20
2018-10-21T07:07:05.451Z,83.10
2018-10-21T07:10:38.659Z,83.00
2018-10-21T07:14:11.912Z,82.90
2018-10-21T07:17:45.435Z,83.10
2018-10-21T07:21:19.139Z,83.30
2018-10-21T07:24:52.415Z,83.60
2018-10-21T07:35:48.492Z,84.00
2018-10-21T07:39:21.707Z,84.20
2018-10-21T07:42:54.927Z,84.00
2018-10-21T07:46:28.160Z,83.70
2018-10-21T07:50:01.843Z,84.10
2018-10-21T07:53:35.072Z,83.70
2018-10-21T07:57:08.311Z,83.80
2018-10-21T08:00:47.363Z,83.80
2018-10-21T08:04:20.586Z,83.70
2018-10-21T08:08:07.364Z,83.50
2018-10-21T08:11:40.584Z,83.50
2018-10-21T08:15:13.904Z,83.00
2018-10-21T08:18:47.096Z,82.80
2018-10-21T08:22:26.080Z,83.30
2018-10-21T08:26:05.120Z,82.30
2018-10-21T08:29:38.351Z,82.20
2018-10-21T08:33:11.582Z,82.00
2018-10-21T08:36:44.808Z,82.00
2018-10-21T08:40:18.024Z,81.70
2018-10-21T08:43:51.252Z,81.30
2018-10-21T08:47:24.518Z,79.70
2018-10-21T08:51:03.381Z,79.20
2018-10-21T08:54:36.608Z,78.70
2018-10-21T08:58:09.844Z,78.30
2018-10-21T09:01:43.084Z,77.50
2018-10-21T09:05:17.643Z,77.10
2018-10-21T09:08:56.160Z,76.60
2018-10-21T09:12:29.389Z,76.00
2018-10-21T09:19:46.966Z,75.00
2018-10-21T09:23:20.197Z,74.30
2018-10-21T09:26:53.419Z,74.00
2018-10-21T09:30:26.654Z,74.00
2018-10-21T09:34:11.393Z,73.60
2018-10-21T09:37:44.968Z,73.50
2018-10-21T09:41:18.201Z,73.00
2018-10-21T09:44:51.434Z,72.60
2018-10-21T09:48:24.669Z,72.10
2018-10-21T09:51:57.948Z,71.20
2018-10-21T09:59:09.757Z,70.00
2018-10-21T10:02:48.255Z,69.70
2018-10-21T10:06:21.523Z,69.10
2018-10-21T10:13:33.409Z,68.20
2018-10-21T10:17:06.661Z,67.20
2018-10-21T10:20:45.404Z,67.10
2018-10-21T10:24:18.703Z,66.70
2018-10-21T10:27:57.282Z,65.80
2018-10-21T10:31:30.511Z,65.80
2018-10-21T10:35:03.772Z,65.50
2018-10-21T10:38:37.016Z,65.10
2018-10-21T10:42:15.731Z,64.70
2018-10-21T10:45:48.953Z,63.80
2018-10-21T10:49:22.212Z,62.10
2018-10-21T10:52:55.490Z,62.00
2018-10-21T10:56:34.455Z,62.10
2018-10-21T11:00:09.235Z,61.20
2018-10-21T11:03:42.355Z,60.10
2018-10-21T11:07:21.296Z,59.80
2018-10-21T11:10:54.528Z,59.10
2018-10-21T11:14:33.230Z,58.90
2018-10-21T11:18:06.468Z,58.70
2018-10-21T11:21:39.725Z,58.60
2018-10-21T11:25:12.956Z,58.20
2018-10-21T11:28:46.209Z,58.10
2018-10-21T11:32:19.449Z,57.80
2018-10-21T11:39:31.282Z,57.40
2018-10-21T11:43:04.642Z,57.10
2018-10-21T11:46:37.905Z,56.80
2018-10-21T11:50:16.761Z,56.90
2018-10-21T11:53:55.728Z,57.00
2018-10-21T11:57:28.951Z,57.70
2018-10-21T12:01:02.203Z,56.50
2018-10-21T12:04:35.432Z,55.90
2018-10-21T12:08:14.304Z,55.40
2018-10-21T12:11:47.524Z,55.00
2018-10-21T12:18:59.335Z,53.60
2018-10-21T12:22:32.596Z,52.80
2018-10-21T12:26:05.773Z,52.50
2018-10-21T12:29:38.981Z,51.40
2018-10-21T12:33:12.208Z,51.30
2018-10-21T12:36:45.432Z,50.50
2018-10-21T12:40:18.737Z,50.10
2018-10-21T12:43:51.972Z,49.40
2018-10-21T12:47:25.199Z,49.40
2018-10-21T12:50:58.444Z,48.70
2018-10-21T12:54:37.450Z,48.10
2018-10-21T12:58:10.675Z,47.90
2018-10-21T13:01:43.855Z,47.50
2018-10-21T13:05:17.077Z,47.00
2018-10-21T13:08:50.316Z,47.50
2018-10-21T13:12:23.631Z,47.70
2018-10-21T13:15:56.870Z,47.90
2018-10-21T13:19:30.127Z,48.20
2018-10-21T13:23:03.329Z,48.40
2018-10-21T13:26:36.549Z,48.40
2018-10-21T13:30:09.776Z,49.20
2018-10-21T13:33:43.016Z,49.40
2018-10-21T13:37:16.336Z,49.50
2018-10-21T13:40:55.275Z,49.70
2018-10-21T13:44:28.520Z,50.00
2018-10-21T13:48:01.778Z,50.20
2018-10-21T13:51:35.516Z,50.40
2018-10-21T13:55:08.794Z,50.40
2018-10-21T13:58:47.622Z,50.50
2018-10-21T14:02:20.835Z,50.50
2018-10-21T14:05:59.866Z,50.40
2018-10-21T14:09:33.121Z,50.10
2018-10-21T14:13:12.303Z,49.70
2018-10-21T14:16:51.276Z,49.80
2018-10-21T14:20:29.995Z,49.60
2018-10-21T14:24:09.093Z,49.60
2018-10-21T14:27:48.046Z,49.60
2018-10-21T14:31:21.227Z,49.80
2018-10-21T14:35:05.659Z,49.80
2018-10-21T14:38:44.119Z,49.70
2018-10-21T14:42:17.442Z,49.70
2018-10-21T14:45:50.679Z,49.60
2018-10-21T14:49:23.856Z,49.60
2018-10-21T14:52:57.110Z,49.80
2018-10-21T14:56:30.328Z,49.80
2018-10-21T15:00:04.095Z,49.80
2018-10-21T15:03:37.373Z,49.50
2018-10-21T15:07:16.088Z,49.40
2018-10-21T15:10:49.639Z,49.30
2018-10-21T15:14:22.841Z,49.30
2018-10-21T15:17:56.106Z,49.20
2018-10-21T15:21:29.309Z,48.90
2018-10-21T15:25:09.076Z,49.00
2018-10-21T15:28:47.956Z,48.70
2018-10-21T15:32:21.324Z,49.00
2018-10-21T15:35:54.556Z,48.90
2018-10-21T15:39:27.766Z,48.90
2018-10-21T15:43:06.618Z,48.90
2018-10-21T15:46:39.828Z,49.00
2018-10-21T15:50:13.147Z,49.30
2018-10-21T15:53:52.113Z,49.60
2018-10-21T15:57:30.841Z,49.20
2018-10-21T16:01:04.060Z,49.20
2018-10-21T16:04:37.380Z,49.20
2018-10-21T16:08:10.686Z,49.50
2018-10-21T16:11:49.248Z,49.60
2018-10-21T16:15:22.471Z,50.10
2018-10-21T16:18:55.709Z,50.20
2018-10-21T16:22:28.917Z,50.50
2018-10-21T16:26:02.287Z,50.70
2018-10-21T16:29:40.892Z,50.90
2018-10-21T16:33:14.112Z,51.10
2018-10-21T16:36:47.337Z,51.30
2018-10-21T16:40:20.564Z,51.50
2018-10-21T16:43:59.399Z,51.80
2018-10-21T16:47:32.604Z,52.00
2018-10-21T16:51:06.393Z,52.20
2018-10-21T16:54:39.572Z,52.50
2018-10-21T16:58:18.299Z,52.60
2018-10-21T17:01:57.153Z,52.90
2018-10-21T17:05:30.392Z,53.10
2018-10-21T17:09:04.156Z,53.40
2018-10-21T17:12:37.451Z,53.80
2018-10-21T17:16:16.266Z,53.80
2018-10-21T17:19:54.947Z,54.10
2018-10-21T17:23:33.509Z,54.70
2018-10-21T17:27:06.728Z,54.70
2018-10-21T17:30:40.055Z,54.90
2018-10-21T17:34:18.954Z,55.30
2018-10-21T17:37:52.063Z,55.30
2018-10-21T17:41:25.287Z,55.30
2018-10-21T17:48:43.002Z,56.40
2018-10-21T17:52:16.320Z,57.40
2018-10-21T17:59:28.693Z,58.80
2018-10-21T18:03:01.907Z,59.30
2018-10-21T18:06:35.121Z,59.70
2018-10-21T18:10:08.466Z,60.20
2018-10-21T18:13:41.645Z,60.90
2018-10-21T18:17:14.885Z,61.40
2018-10-21T18:20:48.116Z,62.00
2018-10-21T18:24:21.356Z,62.60
2018-10-21T18:27:54.665Z,62.90
2018-10-21T18:31:27.939Z,63.30
2018-10-21T18:35:01.200Z,63.80
2018-10-21T18:38:34.448Z,64.20
2018-10-21T18:42:07.679Z,64.40
2018-10-21T18:45:40.925Z,64.50
2018-10-21T18:49:14.235Z,64.30
2018-10-21T18:52:47.412Z,63.90
2018-10-21T18:56:20.666Z,63.80
2018-10-21T18:59:53.896Z,63.90
2018-10-21T19:03:27.136Z,64.20
2018-10-21T19:07:00.376Z,64.30
2018-10-21T19:10:33.633Z,64.70
2018-10-21T19:14:08.011Z,64.90
2018-10-21T19:17:41.714Z,65.30
2018-10-21T19:21:14.997Z,65.60
2018-10-21T19:24:48.276Z,66.00
2018-10-21T19:28:21.513Z,66.10
2018-10-21T19:31:54.756Z,66.10
2018-10-21T19:35:27.994Z,66.10
2018-10-21T19:39:01.226Z,66.00
2018-10-21T19:42:34.453Z,65.90
2018-10-21T19:46:07.722Z,65.80
2018-10-21T19:49:42.342Z,65.70
2018-10-21T19:53:15.620Z,65.70
2018-10-21T19:56:48.888Z,66.00
2018-10-21T20:00:22.164Z,66.40
2018-10-21T20:03:55.455Z,66.60
2018-10-21T20:07:28.671Z,66.90
2018-10-21T20:11:02.168Z,67.00
2018-10-21T20:14:35.421Z,66.90
2018-10-21T20:18:09.032Z,67.10
2018-10-21T20:21:42.246Z,67.70
2018-10-21T20:25:15.510Z,68.00
2018-10-21T20:28:48.749Z,68.50
2018-10-21T20:32:22.008Z,69.90
2018-10-21T20:35:55.273Z,70.30
2018-10-21T20:39:28.515Z,70.70
2018-10-21T20:43:01.760Z,71.10
2018-10-21T20:46:34.988Z,71.50
2018-10-21T20:50:08.376Z,71.90
2018-10-21T20:53:41.602Z,72.10
2018-10-21T20:57:14.977Z,72.30
2018-10-21T21:00:48.213Z,72.70
2018-10-21T21:04:21.423Z,72.90
2018-10-21T21:07:54.888Z,73.00
2018-10-21T21:11:28.361Z,73.00
2018-10-21T21:15:01.597Z,73.20
2018-10-21T21:18:34.821Z,74.10
2018-10-21T21:22:08.140Z,73.60
2018-10-21T21:25:41.303Z,73.70
2018-10-21T21:29:14.525Z,73.80
2018-10-21T21:32:47.749Z,74.00
2018-10-21T21:36:21.013Z,74.30
2018-10-21T21:39:54.244Z,74.50
2018-10-21T21:43:27.489Z,74.80
2018-10-21T21:47:00.720Z,75.00
2018-10-21T21:50:33.958Z,75.10
2018-10-21T21:54:08.377Z,75.40
2018-10-21T21:57:41.613Z,75.60
2018-10-21T22:01:14.837Z,75.70
2018-10-21T22:04:48.047Z,75.80
2018-10-21T22:08:21.332Z,75.80
2018-10-21T22:11:54.589Z,75.80
2018-10-21T22:15:27.803Z,75.90
2018-10-21T22:19:01.028Z,76.00
2018-10-21T22:22:34.240Z,76.10
2018-10-21T22:26:07.530Z,76.20
2018-10-21T22:29:40.752Z,76.10
2018-10-21T22:33:13.983Z,76.00
2018-10-21T22:36:47.214Z,76.70
2018-10-21T22:40:20.420Z,75.90
2018-10-21T22:43:53.644Z,75.90
2018-10-21T22:47:26.869Z,75.80
2018-10-21T22:51:00.098Z,75.70
2018-10-21T22:54:33.315Z,75.90
2018-10-21T22:58:06.642Z,76.10
2018-10-21T23:01:39.863Z,76.20
2018-10-21T23:05:13.098Z,76.30
2018-10-21T23:08:46.318Z,76.60
2018-10-21T23:12:19.618Z,76.60
2018-10-21T23:15:52.774Z,76.80
2018-10-21T23:19:44.935Z,76.80
2018-10-21T23:23:18.168Z,76.80
2018-10-21T23:26:51.624Z,76.90
2018-10-21T23:30:24.848Z,77.10
2018-10-21T23:33:58.380Z,77.10
2018-10-21T23:37:31.564Z,77.10
2018-10-21T23:41:04.875Z,77.00
2018-10-21T23:44:38.104Z,77.00
2018-10-21T23:48:11.346Z,77.00
2018-10-21T23:51:44.603Z,77.00
2018-10-21T23:55:17.851Z,76.80
2018-10-21T23:58:51.076Z,76.60
